createdAt,value
2023-05-19T00:00:38.277Z,533.1539
2023-05-19T00:01:39.983Z,530.1539
2023-05-19T00:02:42.450Z,538.9231
2023-05-19T00:03:43.415Z,533.9231
2023-05-19T00:04:44.880Z,536.7692
2023-05-19T00:05:46.599Z,533.7692
2023-05-19T00:06:48.140Z,534.4615
2023-05-19T00:07:49.868Z,537.9231
2023-05-19T00:08:51.981Z,542.5385
2023-05-19T00:09:53.104Z,540.4615
2023-05-19T00:10:54.860Z,540.0000
2023-05-19T00:11:56.511Z,539.7692
2023-05-19T00:12:58.083Z,537.4615
2023-05-19T00:13:59.746Z,533.7692
2023-05-19T00:15:01.338Z,532.5385
2023-05-19T00:16:03.042Z,535.3846
2023-05-19T00:17:04.637Z,537.8461
2023-05-19T00:18:06.366Z,539.9231
2023-05-19T00:19:08.022Z,535.7692
2023-05-19T00:20:09.595Z,534.6154
2023-05-19T00:21:11.189Z,536.7692
2023-05-19T00:22:12.899Z,536.4615
2023-05-19T00:23:14.499Z,534.6923
2023-05-19T00:24:16.190Z,534.6154
2023-05-19T00:25:17.795Z,538.6923
2023-05-19T00:26:19.506Z,545.1539
2023-05-19T00:27:21.106Z,543.0769
2023-05-19T00:28:22.770Z,537.3846
2023-05-19T00:29:24.388Z,539.6923
2023-05-19T00:30:26.080Z,538.9231
2023-05-19T00:31:27.747Z,535.6923
2023-05-19T00:32:29.416Z,534.7692
2023-05-19T00:33:30.992Z,534.9231
2023-05-19T00:34:32.921Z,541.7692
2023-05-19T00:35:34.280Z,541.3846
2023-05-19T00:36:35.979Z,537.0769
2023-05-19T00:37:37.510Z,534.3077
2023-05-19T00:38:39.214Z,544.7692
2023-05-19T00:39:40.915Z,544.7692
2023-05-19T00:40:42.600Z,541.0000
2023-05-19T00:41:44.160Z,542.3846
2023-05-19T00:42:45.832Z,544.8461
2023-05-19T00:43:47.403Z,543.9231
2023-05-19T00:44:49.163Z,540.2308
2023-05-19T00:45:51.411Z,542.8461
2023-05-19T00:46:52.391Z,543.0000
2023-05-19T00:47:53.993Z,538.5385
2023-05-19T00:48:55.665Z,533.7692
2023-05-19T00:49:57.302Z,533.1539
2023-05-19T00:50:58.984Z,536.4615
2023-05-19T00:52:00.557Z,543.0000
2023-05-19T00:53:02.254Z,540.5385
2023-05-19T00:54:03.850Z,546.4615
2023-05-19T00:55:05.948Z,550.3846
2023-05-19T00:56:07.186Z,541.8461
2023-05-19T00:57:08.783Z,535.3077
2023-05-19T00:58:11.417Z,536.5385
2023-05-19T00:59:12.143Z,541.1539
2023-05-19T01:00:13.745Z,540.8461
2023-05-19T01:01:15.442Z,539.7692
2023-05-19T01:02:17.027Z,537.7692
2023-05-19T01:03:18.728Z,539.5385
2023-05-19T01:04:20.308Z,549.3846
2023-05-19T01:05:22.112Z,554.9231
2023-05-19T01:06:23.646Z,545.0769
2023-05-19T01:07:25.290Z,543.0000
2023-05-19T01:08:27.012Z,538.5385
2023-05-19T01:09:28.591Z,542.6154
2023-05-19T01:10:30.421Z,542.6923
2023-05-19T01:11:32.411Z,541.8461
2023-05-19T01:12:33.468Z,542.6154
2023-05-19T01:13:35.185Z,543.6154
2023-05-19T01:14:36.732Z,548.9231
2023-05-19T01:15:38.457Z,546.0000
2023-05-19T01:16:40.128Z,536.4615
2023-05-19T01:17:41.820Z,542.3077
2023-05-19T01:18:43.365Z,542.8461
2023-05-19T01:19:45.027Z,547.4615
2023-05-19T01:20:46.668Z,543.6154
2023-05-19T01:21:48.394Z,537.3077
2023-05-19T01:22:49.969Z,538.5385
2023-05-19T01:23:51.580Z,541.6154
2023-05-19T01:24:53.942Z,541.7692
2023-05-19T01:25:54.957Z,545.2308
2023-05-19T01:26:56.965Z,542.0000
2023-05-19T01:27:58.187Z,539.6923
2023-05-19T01:28:59.765Z,547.2308
2023-05-19T01:30:01.547Z,547.0769
2023-05-19T01:31:03.161Z,542.6154
2023-05-19T01:32:04.852Z,540.3077
2023-05-19T01:33:06.470Z,538.3077
2023-05-19T01:34:08.120Z,544.3077
2023-05-19T01:35:09.689Z,552.2308
2023-05-19T01:36:11.322Z,548.9231
2023-05-19T01:37:13.948Z,545.0000
2023-05-19T01:38:14.633Z,545.0000
2023-05-19T01:39:16.282Z,546.5385
2023-05-19T01:40:17.872Z,545.6154
2023-05-19T01:41:19.586Z,549.3846
2023-05-19T01:42:21.230Z,548.0769
2023-05-19T01:43:22.830Z,547.8461
2023-05-19T01:44:25.451Z,542.5385
2023-05-19T01:45:26.148Z,533.3846
2023-05-19T01:46:27.936Z,546.0000
2023-05-19T01:47:29.510Z,549.0769
2023-05-19T01:48:31.092Z,549.9231
2023-05-19T01:49:32.739Z,540.7692
2023-05-19T01:50:34.603Z,541.0000
2023-05-19T01:51:36.097Z,542.6154
2023-05-19T01:52:38.400Z,539.6923
2023-05-19T01:53:39.344Z,540.3846
2023-05-19T01:54:40.947Z,544.4615
2023-05-19T01:55:42.662Z,542.3077
2023-05-19T01:56:44.427Z,538.6923
2023-05-19T01:57:45.994Z,536.9231
2023-05-19T01:58:47.603Z,545.4615
2023-05-19T01:59:49.264Z,543.8461
2023-05-19T02:00:50.894Z,541.5385
2023-05-19T02:01:52.613Z,543.2308
2023-05-19T02:02:54.249Z,549.4615
2023-05-19T02:03:55.792Z,541.3846
2023-05-19T02:04:57.524Z,540.3077
2023-05-19T02:05:59.229Z,547.0769
2023-05-19T02:07:00.770Z,544.4615
2023-05-19T02:08:02.515Z,542.0769
2023-05-19T02:09:04.073Z,539.4615
2023-05-19T02:10:05.724Z,543.6923
2023-05-19T02:11:07.311Z,549.1539
2023-05-19T02:12:09.063Z,551.1539
2023-05-19T02:13:10.984Z,551.6923
2023-05-19T02:14:12.327Z,550.4615
2023-05-19T02:15:13.914Z,549.6923
2023-05-19T02:16:15.639Z,552.0000
2023-05-19T02:17:17.241Z,545.7692
2023-05-19T02:18:18.883Z,549.4615
2023-05-19T02:19:20.667Z,546.1539
2023-05-19T02:20:22.206Z,543.3846
2023-05-19T02:21:23.818Z,538.3077
2023-05-19T02:22:25.464Z,539.6154
2023-05-19T02:23:27.111Z,542.2308
2023-05-19T02:24:28.744Z,550.7692
2023-05-19T02:25:30.390Z,550.4615
2023-05-19T02:26:32.020Z,547.3846
2023-05-19T02:27:33.932Z,542.6154
2023-05-19T02:28:35.360Z,540.6154
2023-05-19T02:29:37.912Z,541.7692
2023-05-19T02:30:38.596Z,539.9231
2023-05-19T02:31:40.308Z,548.1539
2023-05-19T02:32:41.962Z,543.3846
2023-05-19T02:33:43.940Z,541.6154
2023-05-19T02:34:45.215Z,542.0000
2023-05-19T02:35:46.786Z,541.0769
2023-05-19T02:36:48.439Z,536.0000
2023-05-19T02:37:50.224Z,537.5385
2023-05-19T02:38:51.756Z,543.8461
2023-05-19T02:39:53.391Z,546.3846
2023-05-19T02:40:55.141Z,544.6154
2023-05-19T02:41:56.756Z,547.3077
2023-05-19T02:42:58.356Z,544.1539
2023-05-19T02:44:00.476Z,547.7692
2023-05-19T02:45:01.602Z,545.0769
2023-05-19T02:46:03.317Z,544.1539
2023-05-19T02:47:04.882Z,544.2308
2023-05-19T02:48:06.699Z,542.5385
2023-05-19T02:49:08.315Z,548.0000
2023-05-19T02:50:09.924Z,544.6923
2023-05-19T02:51:11.562Z,549.6154
2023-05-19T02:52:13.318Z,549.8461
2023-05-19T02:53:15.064Z,549.0769
2023-05-19T02:54:17.006Z,536.3846
2023-05-19T02:55:18.124Z,533.7692
2023-05-19T02:56:19.819Z,531.0769
2023-05-19T02:57:21.427Z,536.9231
2023-05-19T02:58:23.165Z,537.0769
2023-05-19T02:59:25.715Z,532.6923
2023-05-19T03:00:26.366Z,535.7692
2023-05-19T03:01:28.062Z,537.1539
2023-05-19T03:02:29.764Z,532.4615
2023-05-19T03:03:31.436Z,530.3077
2023-05-19T03:04:32.943Z,530.3077
2023-05-19T03:05:34.659Z,529.5385
2023-05-19T03:06:36.269Z,528.7692
2023-05-19T03:07:38.582Z,527.4615
2023-05-19T03:08:42.176Z,529.1539
2023-05-19T03:09:41.188Z,537.0000
2023-05-19T03:10:42.708Z,538.4615
2023-05-19T03:11:44.393Z,538.2308
2023-05-19T03:12:46.010Z,538.0000
2023-05-19T03:13:47.728Z,536.5385
2023-05-19T03:14:49.390Z,536.6154
2023-05-19T03:15:50.963Z,536.3077
2023-05-19T03:16:52.846Z,536.3846
2023-05-19T03:17:54.278Z,533.1539
2023-05-19T03:18:55.899Z,529.6923
2023-05-19T03:19:57.553Z,527.5385
2023-05-19T03:20:59.179Z,529.0000
2023-05-19T03:22:00.767Z,530.9231
2023-05-19T03:23:02.384Z,528.3077
2023-05-19T03:24:04.108Z,524.4615
2023-05-19T03:25:09.003Z,526.6154
2023-05-19T03:26:07.366Z,530.0769
2023-05-19T03:27:09.029Z,530.9231
2023-05-19T03:28:10.663Z,533.5385
2023-05-19T03:29:12.275Z,533.3846
2023-05-19T03:30:15.017Z,530.8461
2023-05-19T03:31:15.582Z,532.3846
2023-05-19T03:32:17.249Z,534.5385
2023-05-19T03:33:18.927Z,536.6154
2023-05-19T03:34:21.495Z,536.1539
2023-05-19T03:35:22.155Z,534.0769
2023-05-19T03:36:23.745Z,530.0000
2023-05-19T03:37:25.411Z,530.4615
2023-05-19T03:38:27.048Z,531.4615
2023-05-19T03:39:28.660Z,531.6923
2023-05-19T03:40:30.554Z,529.4615
2023-05-19T03:41:32.040Z,528.1539
2023-05-19T03:42:33.693Z,526.9231
2023-05-19T03:43:35.324Z,525.0000
2023-05-19T03:44:36.965Z,525.1539
2023-05-19T03:45:38.681Z,530.4615
2023-05-19T03:46:40.273Z,531.3846
2023-05-19T03:47:41.914Z,530.0000
2023-05-19T03:48:43.578Z,527.6154
2023-05-19T03:49:45.176Z,528.1539
2023-05-19T03:50:46.869Z,529.2308
2023-05-19T03:51:48.443Z,530.3077
2023-05-19T03:52:50.127Z,534.4615
2023-05-19T03:53:51.775Z,534.8461
2023-05-19T03:54:54.482Z,536.8461
2023-05-19T03:55:55.443Z,540.6154
2023-05-19T03:56:56.694Z,537.7692
2023-05-19T03:57:58.373Z,543.0000
2023-05-19T03:59:00.029Z,541.3846
2023-05-19T04:00:01.789Z,532.1539
2023-05-19T04:01:03.373Z,525.4615
2023-05-19T04:02:04.934Z,522.8461
2023-05-19T04:03:06.632Z,525.2308
2023-05-19T04:04:08.269Z,528.6923
2023-05-19T04:05:10.001Z,526.3846
2023-05-19T04:06:11.522Z,530.7692
2023-05-19T04:07:13.181Z,532.1539
2023-05-19T04:08:14.776Z,535.7692
2023-05-19T04:09:16.452Z,533.2308
2023-05-19T04:10:19.239Z,534.5385
2023-05-19T04:11:19.904Z,534.9231
2023-05-19T04:12:21.571Z,527.6154
2023-05-19T04:13:23.237Z,524.6154
2023-05-19T04:14:25.769Z,528.1539
2023-05-19T04:15:27.327Z,526.6154
2023-05-19T04:16:28.224Z,534.0000
2023-05-19T04:17:29.769Z,532.0000
2023-05-19T04:18:31.434Z,532.6154
2023-05-19T04:19:33.027Z,532.5385
2023-05-19T04:20:35.158Z,534.0769
2023-05-19T04:21:36.288Z,531.3077
2023-05-19T04:22:37.972Z,529.4615
2023-05-19T04:23:39.615Z,523.7692
2023-05-19T04:24:41.274Z,528.0000
2023-05-19T04:25:42.940Z,533.1539
2023-05-19T04:26:44.573Z,531.8461
2023-05-19T04:27:46.235Z,533.0000
2023-05-19T04:28:47.879Z,538.0769
2023-05-19T04:29:49.469Z,537.5385
2023-05-19T04:30:51.307Z,528.9231
2023-05-19T04:31:52.779Z,526.7692
2023-05-19T04:32:55.431Z,524.6154
2023-05-19T04:33:55.973Z,526.3077
2023-05-19T04:34:57.754Z,527.5385
2023-05-19T04:35:59.405Z,521.1539
2023-05-19T04:37:01.029Z,524.8461
2023-05-19T04:38:02.664Z,530.0769
2023-05-19T04:39:04.286Z,533.7692
2023-05-19T04:40:06.176Z,533.3077
2023-05-19T04:41:07.558Z,532.4615
2023-05-19T04:42:09.234Z,537.6923
2023-05-19T04:43:10.866Z,533.0769
2023-05-19T04:44:12.479Z,531.0769
2023-05-19T04:45:14.336Z,529.1539
2023-05-19T04:46:16.902Z,531.2308
2023-05-19T04:47:17.323Z,537.2308
2023-05-19T04:48:19.106Z,541.6154
2023-05-19T04:49:20.649Z,540.9231
2023-05-19T04:50:22.423Z,537.0000
2023-05-19T04:51:24.031Z,533.2308
2023-05-19T04:52:25.719Z,537.3846
2023-05-19T04:53:27.277Z,538.6154
2023-05-19T04:54:28.966Z,539.1539
2023-05-19T04:55:30.551Z,542.2308
2023-05-19T04:56:32.328Z,544.6154
2023-05-19T04:57:33.821Z,541.0769
2023-05-19T04:58:35.475Z,547.2308
2023-05-19T04:59:37.690Z,552.4615
2023-05-19T05:00:38.749Z,556.3846
2023-05-19T05:01:40.519Z,560.4615
2023-05-19T05:02:43.251Z,563.3846
2023-05-19T05:03:43.731Z,561.8461
2023-05-19T05:04:45.291Z,557.0000
2023-05-19T05:05:46.969Z,561.0000
2023-05-19T05:06:48.673Z,562.0000
2023-05-19T05:07:51.187Z,559.6923
2023-05-19T05:08:51.857Z,552.5385
2023-05-19T05:09:53.441Z,554.7692
2023-05-19T05:10:55.125Z,558.2308
2023-05-19T05:11:56.904Z,560.6154
2023-05-19T05:12:58.427Z,567.7692
2023-05-19T05:14:00.178Z,557.3077
2023-05-19T05:15:01.788Z,553.6154
2023-05-19T05:16:03.442Z,556.3077
2023-05-19T05:17:05.211Z,560.0000
2023-05-19T05:18:06.704Z,560.0769
2023-05-19T05:19:08.341Z,558.3846
2023-05-19T05:20:09.954Z,561.3077
2023-05-19T05:21:11.604Z,557.2308
2023-05-19T05:22:13.278Z,560.9231
2023-05-19T05:23:14.925Z,559.3846
2023-05-19T05:24:16.476Z,559.8461
2023-05-19T05:25:18.272Z,560.1539
2023-05-19T05:26:19.838Z,558.4615
2023-05-19T05:27:21.564Z,556.8461
2023-05-19T05:28:23.084Z,554.9231
2023-05-19T05:29:24.790Z,552.6923
2023-05-19T05:30:26.335Z,554.3846
2023-05-19T05:31:28.016Z,551.4615
2023-05-19T05:32:30.809Z,552.0769
2023-05-19T05:33:31.190Z,552.2308
2023-05-19T05:34:33.043Z,555.0769
2023-05-19T05:35:34.676Z,551.4615
2023-05-19T05:36:36.328Z,552.2308
2023-05-19T05:37:37.912Z,546.6154
2023-05-19T05:38:39.611Z,549.0769
2023-05-19T05:39:42.198Z,550.1539
2023-05-19T05:40:42.809Z,546.0000
2023-05-19T05:41:44.491Z,551.2308
2023-05-19T05:42:46.178Z,546.6154
2023-05-19T05:43:48.754Z,543.7692
2023-05-19T05:44:50.373Z,549.0000
2023-05-19T05:45:51.097Z,549.9231
2023-05-19T05:46:52.712Z,550.2308
2023-05-19T05:47:55.261Z,549.3077
2023-05-19T05:48:56.958Z,548.5385
2023-05-19T05:49:58.491Z,547.5385
2023-05-19T05:50:59.361Z,547.6154
2023-05-19T05:52:06.428Z,548.0769
2023-05-19T05:53:02.528Z,555.0000
2023-05-19T05:54:04.084Z,552.3846
2023-05-19T05:55:05.807Z,552.3846
2023-05-19T05:56:07.436Z,547.3077
2023-05-19T05:57:09.113Z,548.3846
2023-05-19T05:58:10.724Z,549.4615
2023-05-19T05:59:12.338Z,550.4615
2023-05-19T06:00:13.993Z,550.7692
2023-05-19T06:01:15.689Z,548.1539
2023-05-19T06:02:17.331Z,544.9231
2023-05-19T06:03:19.061Z,550.0769
2023-05-19T06:04:20.573Z,549.3846
2023-05-19T06:05:23.128Z,547.6923
2023-05-19T06:06:23.881Z,549.3846
2023-05-19T06:07:25.573Z,556.0769
2023-05-19T06:08:27.150Z,552.2308
2023-05-19T06:09:28.754Z,548.7692
2023-05-19T06:10:30.552Z,548.6154
2023-05-19T06:11:32.058Z,549.3077
2023-05-19T06:12:33.663Z,554.6154
2023-05-19T06:13:35.572Z,551.5385
2023-05-19T06:14:36.956Z,550.2308
2023-05-19T06:15:38.679Z,550.1539
2023-05-19T06:16:40.331Z,551.4615
2023-05-19T06:17:41.960Z,552.2308
2023-05-19T06:18:43.637Z,551.8461
2023-05-19T06:19:45.302Z,553.0769
2023-05-19T06:20:46.897Z,554.0769
2023-05-19T06:21:48.504Z,554.6923
2023-05-19T06:22:50.083Z,551.6154
2023-05-19T06:23:51.848Z,548.3846
2023-05-19T06:24:53.389Z,545.0000
2023-05-19T06:25:55.071Z,547.3846
2023-05-19T06:26:56.808Z,550.0000
2023-05-19T06:27:58.433Z,551.9231
2023-05-19T06:29:00.126Z,547.0769
2023-05-19T06:30:01.726Z,552.3846
2023-05-19T06:31:03.312Z,556.0000
2023-05-19T06:32:04.912Z,550.0769
2023-05-19T06:33:06.601Z,546.6923
2023-05-19T06:34:08.263Z,547.1539
2023-05-19T06:35:09.844Z,542.6923
2023-05-19T06:36:11.448Z,546.6923
2023-05-19T06:37:13.245Z,540.5385
2023-05-19T06:38:14.799Z,541.2308
2023-05-19T06:39:17.121Z,539.5385
2023-05-19T06:40:18.072Z,540.4615
2023-05-19T06:41:19.698Z,543.9231
2023-05-19T06:42:21.335Z,555.3077
2023-05-19T06:43:22.991Z,550.2308
2023-05-19T06:44:24.708Z,546.3846
2023-05-19T06:45:26.271Z,542.2308
2023-05-19T06:46:27.971Z,544.9231
2023-05-19T06:47:29.656Z,547.7692
2023-05-19T06:48:31.224Z,537.5385
2023-05-19T06:49:33.136Z,544.6154
2023-05-19T06:50:34.849Z,548.7692
2023-05-19T06:51:36.184Z,548.2308
2023-05-19T06:52:37.790Z,553.3846
2023-05-19T06:53:39.501Z,554.6923
2023-05-19T06:54:41.247Z,553.0000
2023-05-19T06:55:57.499Z,546.1539
2023-05-19T06:56:44.500Z,552.6923
2023-05-19T06:57:46.098Z,553.4615
2023-05-19T06:58:47.753Z,551.7692
2023-05-19T06:59:49.448Z,551.2308
2023-05-19T07:00:51.013Z,549.1539
2023-05-19T07:01:52.770Z,547.3846
2023-05-19T07:02:55.128Z,548.3077
2023-05-19T07:03:56.068Z,545.0769
2023-05-19T07:04:58.087Z,545.6923
2023-05-19T07:05:59.609Z,546.1539
2023-05-19T07:07:00.873Z,541.4615
2023-05-19T07:08:02.586Z,546.4615
2023-05-19T07:09:04.225Z,541.8461
2023-05-19T07:10:05.831Z,538.5385
2023-05-19T07:11:07.469Z,540.1539
2023-05-19T07:12:09.105Z,543.8461
2023-05-19T07:13:10.748Z,547.4615
2023-05-19T07:14:12.387Z,550.7692
2023-05-19T07:15:14.075Z,547.0769
2023-05-19T07:16:15.728Z,549.7692
2023-05-19T07:17:17.314Z,552.4615
2023-05-19T07:18:19.095Z,550.5385
2023-05-19T07:19:20.762Z,548.4615
2023-05-19T07:20:23.147Z,548.8461
2023-05-19T07:21:23.880Z,552.3077
2023-05-19T07:22:25.586Z,552.2308
2023-05-19T07:23:27.125Z,550.6154
2023-05-19T07:24:28.810Z,549.9231
2023-05-19T07:25:30.486Z,545.3846
2023-05-19T07:26:32.050Z,544.6923
2023-05-19T07:27:33.663Z,544.0769
2023-05-19T07:28:35.298Z,542.7692
2023-05-19T07:29:36.952Z,542.5385
2023-05-19T07:30:38.590Z,543.4615
2023-05-19T07:31:41.091Z,543.8461
2023-05-19T07:32:41.896Z,542.3077
2023-05-19T07:33:43.496Z,541.4615
2023-05-19T07:34:45.206Z,539.1539
2023-05-19T07:35:46.878Z,542.1539
2023-05-19T07:36:48.568Z,543.3846
2023-05-19T07:37:50.055Z,540.6154
2023-05-19T07:38:51.778Z,541.6154
2023-05-19T07:39:53.384Z,547.8461
2023-05-19T07:40:55.151Z,545.1539
2023-05-19T07:41:56.711Z,543.1539
2023-05-19T07:42:58.306Z,544.0769
2023-05-19T07:43:59.944Z,546.1539
2023-05-19T07:45:01.748Z,543.8461
2023-05-19T07:46:03.589Z,548.4615
2023-05-19T07:47:05.064Z,545.8461
2023-05-19T07:48:06.826Z,541.9231
2023-05-19T07:49:09.323Z,543.0769
2023-05-19T07:50:09.931Z,542.8461
2023-05-19T07:51:11.806Z,541.4615
2023-05-19T07:52:13.389Z,541.6923
2023-05-19T07:53:15.904Z,543.0000
2023-05-19T07:54:16.465Z,541.6923
2023-05-19T07:55:19.100Z,541.0769
2023-05-19T07:56:19.871Z,540.0000
2023-05-19T07:57:21.588Z,541.1539
2023-05-19T07:58:24.269Z,543.4615
2023-05-19T07:59:25.652Z,539.3077
2023-05-19T08:00:26.430Z,539.8461
2023-05-19T08:01:29.049Z,535.7692
2023-05-19T08:02:29.771Z,538.3077
2023-05-19T08:03:31.406Z,537.8461
2023-05-19T08:04:33.069Z,539.4615
2023-05-19T08:05:34.631Z,544.9231
2023-05-19T08:06:36.348Z,545.5385
2023-05-19T08:07:38.032Z,546.6923
2023-05-19T08:08:39.573Z,546.5385
2023-05-19T08:09:41.243Z,545.3077
2023-05-19T08:10:42.884Z,543.9231
2023-05-19T08:11:44.467Z,542.9231
2023-05-19T08:12:46.750Z,538.0769
2023-05-19T08:13:47.705Z,535.4615
2023-05-19T08:14:49.476Z,543.0000
2023-05-19T08:15:51.123Z,542.7692
2023-05-19T08:16:52.716Z,548.3077
2023-05-19T08:17:54.402Z,539.3077
2023-05-19T08:18:56.081Z,533.6154
2023-05-19T08:19:57.798Z,546.1539
2023-05-19T08:21:00.349Z,549.5385
2023-05-19T08:22:00.821Z,550.5385
2023-05-19T08:23:02.564Z,546.9231
2023-05-19T08:24:04.249Z,543.5385
2023-05-19T08:25:05.904Z,541.8461
2023-05-19T08:26:07.488Z,541.6923
2023-05-19T08:27:09.148Z,543.1539
2023-05-19T08:28:10.752Z,545.6923
2023-05-19T08:29:12.486Z,540.4615
2023-05-19T08:30:14.214Z,542.5385
2023-05-19T08:31:15.813Z,543.5385
2023-05-19T08:32:17.439Z,544.6154
2023-05-19T08:33:19.039Z,549.0769
2023-05-19T08:34:20.757Z,549.3846
2023-05-19T08:35:23.397Z,543.2308
2023-05-19T08:36:24.187Z,540.0769
2023-05-19T08:37:25.597Z,540.7692
2023-05-19T08:38:27.276Z,534.2308
2023-05-19T08:39:28.876Z,529.9231
2023-05-19T08:40:30.711Z,532.3077
2023-05-19T08:41:32.300Z,539.2308
2023-05-19T08:42:34.839Z,541.3846
2023-05-19T08:43:35.356Z,541.3077
2023-05-19T08:44:37.109Z,544.7692
2023-05-19T08:45:38.832Z,540.2308
2023-05-19T08:46:40.454Z,544.5385
2023-05-19T08:47:42.076Z,540.7692
2023-05-19T08:48:43.709Z,536.6154
2023-05-19T08:49:45.305Z,534.5385
2023-05-19T08:50:46.945Z,534.8461
2023-05-19T08:51:48.700Z,541.5385
2023-05-19T08:52:52.958Z,541.3846
2023-05-19T08:53:51.913Z,539.2308
2023-05-19T08:54:53.470Z,543.3077
2023-05-19T08:55:56.162Z,545.7692
2023-05-19T08:56:56.782Z,540.9231
2023-05-19T08:57:58.388Z,539.0769
2023-05-19T08:58:59.990Z,537.9231
2023-05-19T09:00:01.669Z,537.7692
2023-05-19T09:01:03.322Z,531.8461
2023-05-19T09:02:05.702Z,535.3846
2023-05-19T09:04:08.373Z,535.0769
2023-05-19T09:05:09.948Z,527.6923
2023-05-19T09:06:11.513Z,528.0769
2023-05-19T09:07:13.190Z,531.5385
2023-05-19T09:08:14.960Z,535.6923
2023-05-19T09:09:16.481Z,537.0000
2023-05-19T09:10:18.177Z,536.4615
2023-05-19T09:11:19.761Z,532.4615
2023-05-19T09:12:21.538Z,532.1539
2023-05-19T09:13:23.038Z,537.3077
2023-05-19T09:14:24.667Z,532.7692
2023-05-19T09:15:26.321Z,532.3846
2023-05-19T09:16:29.942Z,533.7692
2023-05-19T09:17:29.631Z,537.1539
2023-05-19T09:18:31.315Z,536.3846
2023-05-19T09:19:33.036Z,540.6154
2023-05-19T09:20:34.638Z,536.6923
2023-05-19T09:21:36.172Z,534.1539
2023-05-19T09:22:38.225Z,533.2308
2023-05-19T09:23:39.469Z,536.6923
2023-05-19T09:24:41.202Z,537.6154
2023-05-19T09:25:42.716Z,540.7692
2023-05-19T09:26:44.425Z,540.6923
2023-05-19T09:27:46.160Z,537.0769
2023-05-19T09:28:47.735Z,534.6923
2023-05-19T09:29:49.303Z,536.7692
2023-05-19T09:30:51.012Z,535.5385
2023-05-19T09:31:52.738Z,537.3077
2023-05-19T09:32:54.341Z,535.9231
2023-05-19T09:33:56.074Z,537.3846
2023-05-19T09:34:57.549Z,554.6923
2023-05-19T09:35:59.175Z,556.4615
2023-05-19T09:37:00.903Z,557.3077
2023-05-19T09:38:02.488Z,549.6923
2023-05-19T09:39:04.229Z,555.2308
2023-05-19T09:40:05.798Z,560.7692
2023-05-19T09:41:07.484Z,565.6923
2023-05-19T09:42:09.082Z,565.0769
2023-05-19T09:43:10.730Z,565.4615
2023-05-19T09:44:12.400Z,566.2308
2023-05-19T09:45:14.043Z,565.6923
2023-05-19T09:46:15.595Z,566.3846
2023-05-19T09:47:17.313Z,574.0769
2023-05-19T09:48:18.922Z,576.5385
2023-05-19T09:49:20.618Z,574.2308
2023-05-19T09:50:22.208Z,573.7692
2023-05-19T09:51:23.855Z,575.3077
2023-05-19T09:52:25.503Z,584.0000
2023-05-19T09:53:27.226Z,594.3846
2023-05-19T09:54:28.849Z,597.4615
2023-05-19T09:55:31.099Z,598.9231
2023-05-19T09:56:32.120Z,595.6923
2023-05-19T09:57:33.696Z,598.0769
2023-05-19T09:58:35.563Z,601.1539
2023-05-19T09:59:37.041Z,607.6154
2023-05-19T10:00:38.703Z,605.9231
2023-05-19T10:01:40.389Z,607.9231
2023-05-19T10:02:41.960Z,612.4615
2023-05-19T10:03:43.535Z,612.0769
2023-05-19T10:04:45.854Z,611.6154
2023-05-19T10:05:46.883Z,613.0000
2023-05-19T10:06:48.461Z,606.3077
2023-05-19T10:07:50.114Z,604.6154
2023-05-19T10:08:51.741Z,607.5385
2023-05-19T10:09:53.752Z,610.9231
2023-05-19T10:10:55.072Z,604.9231
2023-05-19T10:11:57.181Z,597.2308
2023-05-19T10:12:58.381Z,591.5385
2023-05-19T10:14:00.012Z,595.0000
2023-05-19T10:15:01.598Z,596.0000
2023-05-19T10:16:03.586Z,596.7692
2023-05-19T10:17:05.069Z,596.9231
2023-05-19T10:18:06.557Z,590.0000
2023-05-19T10:19:08.206Z,587.3846
2023-05-19T10:20:09.841Z,588.0769
2023-05-19T10:21:11.495Z,590.8461
2023-05-19T10:22:13.049Z,591.7692
2023-05-19T10:23:15.159Z,584.9231
2023-05-19T10:24:16.301Z,584.1539
2023-05-19T10:25:17.924Z,586.9231
2023-05-19T10:26:19.523Z,582.1539
2023-05-19T10:27:21.247Z,576.4615
2023-05-19T10:28:22.916Z,578.1539
2023-05-19T10:29:24.666Z,577.6154
2023-05-19T10:30:26.137Z,581.7692
2023-05-19T10:31:27.787Z,586.3846
2023-05-19T10:32:29.698Z,583.5385
2023-05-19T10:33:31.631Z,578.8461
2023-05-19T10:34:32.699Z,577.3077
2023-05-19T10:35:34.521Z,576.5385
2023-05-19T10:36:36.052Z,578.0769
2023-05-19T10:37:38.186Z,578.0769
2023-05-19T10:38:39.296Z,576.8461
2023-05-19T10:39:41.109Z,577.5385
2023-05-19T10:40:42.765Z,574.3846
2023-05-19T10:41:45.137Z,572.0769
2023-05-19T10:42:46.019Z,567.0000
2023-05-19T10:43:47.678Z,562.5385
2023-05-19T10:44:49.340Z,561.6923
2023-05-19T10:45:51.003Z,560.9231
2023-05-19T10:46:54.162Z,562.1539
2023-05-19T10:47:54.257Z,564.2308
2023-05-19T10:48:56.966Z,562.6154
2023-05-19T10:49:57.467Z,562.5385
2023-05-19T10:50:59.160Z,560.1539
2023-05-19T10:52:00.758Z,560.7692
2023-05-19T10:53:03.376Z,553.9231
2023-05-19T10:54:04.154Z,557.4615
2023-05-19T10:55:05.738Z,559.3077
2023-05-19T10:56:07.449Z,557.5385
2023-05-19T10:57:09.125Z,553.0769
2023-05-19T10:58:10.838Z,555.2308
2023-05-19T10:59:12.874Z,554.0769
2023-05-19T11:00:15.177Z,554.0000
2023-05-19T11:01:15.761Z,557.3846
2023-05-19T11:02:18.399Z,550.0769
2023-05-19T11:03:20.229Z,555.7692
2023-05-19T11:04:20.781Z,557.0000
2023-05-19T11:05:22.232Z,555.3077
2023-05-19T11:06:23.955Z,554.1539
2023-05-19T11:07:25.556Z,562.1539
2023-05-19T11:08:27.298Z,589.4615
2023-05-19T11:09:39.879Z,593.0000
2023-05-19T11:10:31.348Z,585.4615
2023-05-19T11:11:33.230Z,589.6154
2023-05-19T11:12:33.710Z,608.0000
2023-05-19T11:13:36.667Z,613.6923
2023-05-19T11:14:37.057Z,621.4615
2023-05-19T11:15:38.575Z,617.9231
2023-05-19T11:16:41.404Z,627.0769
2023-05-19T11:17:41.983Z,630.6154
2023-05-19T11:18:43.685Z,628.4615
2023-05-19T11:19:45.249Z,623.6923
2023-05-19T11:20:47.071Z,617.7692
2023-05-19T11:21:48.570Z,617.0000
2023-05-19T11:22:50.169Z,614.0769
2023-05-19T11:23:51.938Z,615.6923
2023-05-19T11:24:53.890Z,605.4615
2023-05-19T11:25:55.895Z,603.3077
2023-05-19T11:26:56.739Z,602.2308
2023-05-19T11:27:58.497Z,599.4615
2023-05-19T11:29:00.023Z,596.6154
2023-05-19T11:30:01.836Z,588.9231
2023-05-19T11:31:03.404Z,581.4615
2023-05-19T11:32:05.078Z,585.2308
2023-05-19T11:33:06.686Z,585.5385
2023-05-19T11:34:08.247Z,583.2308
2023-05-19T11:35:09.932Z,578.9231
2023-05-19T11:36:11.579Z,572.4615
2023-05-19T11:37:13.353Z,574.0769
2023-05-19T11:38:15.795Z,576.7692
2023-05-19T11:39:17.465Z,576.2308
2023-05-19T11:40:18.126Z,575.1539
2023-05-19T11:41:20.848Z,569.8461
2023-05-19T11:42:21.474Z,563.2308
2023-05-19T11:43:23.145Z,565.7692
2023-05-19T11:44:24.742Z,569.6923
2023-05-19T11:45:26.392Z,570.1539
2023-05-19T11:46:29.066Z,569.0769
2023-05-19T11:47:32.042Z,561.2308
2023-05-19T11:48:31.319Z,559.6923
2023-05-19T11:49:32.787Z,559.4615
2023-05-19T11:50:34.451Z,563.0000
2023-05-19T11:51:36.126Z,563.6154
2023-05-19T11:52:38.277Z,561.0000
2023-05-19T11:53:39.388Z,559.8461
2023-05-19T11:54:41.029Z,562.2308
2023-05-19T11:55:42.654Z,560.8461
2023-05-19T11:56:44.367Z,560.6154
2023-05-19T11:57:56.038Z,558.0000
2023-05-19T11:58:47.602Z,555.4615
2023-05-19T11:59:49.314Z,550.9231
2023-05-19T12:00:50.863Z,552.0000
2023-05-19T12:01:52.565Z,552.0769
2023-05-19T12:02:54.390Z,550.0769
2023-05-19T12:03:55.986Z,552.5385
2023-05-19T12:04:57.541Z,553.2308